createdAt,value
2022-11-05T00:00:01.887Z,9.6
2022-11-05T00:01:01.147Z,9.6
2022-11-05T00:02:01.264Z,9.6
2022-11-05T00:03:01.883Z,9.6
2022-11-05T00:04:02.065Z,9.6
2022-11-05T00:05:00.469Z,9.6
2022-11-05T00:06:00.138Z,9.6
2022-11-05T00:06:59.714Z,9.6
2022-11-05T00:08:02.405Z,9.6
2022-11-05T00:09:02.125Z,9.6
2022-11-05T00:10:01.511Z,9.6
2022-11-05T00:11:01.052Z,9.6
2022-11-05T00:12:01.060Z,9.6
2022-11-05T00:13:01.697Z,9.6
2022-11-05T00:14:01.325Z,9.6
2022-11-05T00:15:01.965Z,9.6
2022-11-05T00:16:01.819Z,9.6
2022-11-05T00:17:01.208Z,9.6
2022-11-05T00:18:01.191Z,9.6
2022-11-05T00:19:01.925Z,9.6
2022-11-05T00:20:01.794Z,9.6
2022-11-05T00:21:01.064Z,9.6
2022-11-05T00:22:01.055Z,9.6
2022-11-05T00:23:01.050Z,9.6
2022-11-05T00:24:01.451Z,9.6
2022-11-05T00:25:01.427Z,9.6
2022-11-05T00:26:02.565Z,9.6
2022-11-05T00:27:00.408Z,9.6
2022-11-05T00:27:59.958Z,9.6
2022-11-05T00:28:59.622Z,9.6
2022-11-05T00:30:01.208Z,9.6
2022-11-05T00:31:01.963Z,9.6
2022-11-05T00:32:01.486Z,9.6
2022-11-05T00:33:02.487Z,9.6
2022-11-05T00:34:01.336Z,9.6
2022-11-05T00:35:04.019Z,9.6
2022-11-05T00:36:04.035Z,9.6
2022-11-05T00:37:01.845Z,9.6
2022-11-05T00:38:03.158Z,9.6
2022-11-05T00:39:01.126Z,9.6
2022-11-05T00:40:01.148Z,9.6
2022-11-05T00:41:01.127Z,9.5
2022-11-05T00:42:01.111Z,9.5
2022-11-05T00:43:01.288Z,9.6
2022-11-05T00:44:01.531Z,9.6
2022-11-05T00:45:01.252Z,9.6
2022-11-05T00:46:01.040Z,9.6
2022-11-05T00:47:01.046Z,9.6
2022-11-05T00:48:01.046Z,9.6
2022-11-05T00:49:01.117Z,9.6
2022-11-05T00:50:01.152Z,9.6
2022-11-05T00:51:03.803Z,9.6
2022-11-05T00:52:01.455Z,9.6
2022-11-05T00:53:01.473Z,9.6
2022-11-05T00:54:03.882Z,9.6
2022-11-05T00:55:01.084Z,9.6
2022-11-05T00:56:01.060Z,9.6
2022-11-05T00:57:04.642Z,9.6
2022-11-05T00:58:01.296Z,9.6
2022-11-05T00:59:01.113Z,9.6
2022-11-05T01:00:01.117Z,9.6
2022-11-05T01:01:01.530Z,9.6
2022-11-05T01:02:01.206Z,9.6
2022-11-05T01:03:01.051Z,9.6
2022-11-05T01:04:01.096Z,9.6
2022-11-05T01:05:01.064Z,9.6
2022-11-05T01:06:04.110Z,9.6
2022-11-05T01:07:01.964Z,9.6
2022-11-05T01:08:01.063Z,9.6
2022-11-05T01:09:01.425Z,9.6
2022-11-05T01:10:01.611Z,9.6
2022-11-05T01:11:08.162Z,9.6
2022-11-05T01:12:01.552Z,9.6
2022-11-05T01:13:00.892Z,9.6
2022-11-05T01:14:01.100Z,9.6
2022-11-05T01:15:01.356Z,9.6
2022-11-05T01:16:12.040Z,9.6
2022-11-05T01:17:03.942Z,9.6
2022-11-05T01:18:02.601Z,9.6
2022-11-05T01:19:01.152Z,9.6
2022-11-05T01:20:01.536Z,9.6
2022-11-05T01:21:15.357Z,9.6
2022-11-05T01:22:01.102Z,9.6
2022-11-05T01:23:01.225Z,9.6
2022-11-05T01:24:01.375Z,9.6
2022-11-05T01:25:01.472Z,9.6
2022-11-05T01:26:01.194Z,9.6
2022-11-05T01:27:01.088Z,9.6
2022-11-05T01:28:01.101Z,9.6
2022-11-05T01:29:01.139Z,9.6
2022-11-05T01:30:01.051Z,9.6
2022-11-05T01:31:01.106Z,9.6
2022-11-05T01:32:01.122Z,9.6
2022-11-05T01:33:03.873Z,9.6
2022-11-05T01:34:01.367Z,9.6
2022-11-05T01:35:02.059Z,9.6
2022-11-05T01:36:02.100Z,9.6
2022-11-05T01:37:01.160Z,9.6
2022-11-05T01:38:02.269Z,9.6
2022-11-05T01:39:01.159Z,9.6
2022-11-05T01:40:01.843Z,9.6
2022-11-05T01:41:01.059Z,9.6
2022-11-05T01:42:01.232Z,9.6
2022-11-05T01:43:01.440Z,9.6
2022-11-05T01:44:01.090Z,9.6
2022-11-05T01:45:01.050Z,9.6
2022-11-05T01:46:01.102Z,9.6
2022-11-05T01:47:01.107Z,9.6
2022-11-05T01:48:01.726Z,9.6
2022-11-05T01:49:03.496Z,9.6
2022-11-05T01:50:02.315Z,9.6
2022-11-05T01:51:01.676Z,9.6
2022-11-05T01:52:02.355Z,9.6
2022-11-05T01:53:01.535Z,9.6
2022-11-05T01:54:01.156Z,9.6
2022-11-05T01:55:02.088Z,9.6
2022-11-05T01:56:01.782Z,9.6
2022-11-05T01:57:01.868Z,9.6
2022-11-05T01:58:01.077Z,9.6
2022-11-05T01:59:01.131Z,9.6
2022-11-05T02:00:01.115Z,9.6
2022-11-05T02:01:02.427Z,9.6
2022-11-05T02:02:01.408Z,9.6
2022-11-05T02:03:01.268Z,9.6
2022-11-05T02:04:01.452Z,9.6
2022-11-05T02:05:01.129Z,9.6
2022-11-05T02:06:01.103Z,9.6
2022-11-05T02:07:01.142Z,9.6
2022-11-05T02:08:01.074Z,9.6
2022-11-05T02:09:01.436Z,9.6
2022-11-05T02:10:02.041Z,9.6
2022-11-05T02:11:01.188Z,9.6
2022-11-05T02:12:01.978Z,9.6
2022-11-05T02:13:01.154Z,9.6
2022-11-05T02:14:01.294Z,9.6
2022-11-05T02:15:01.924Z,9.6
2022-11-05T02:16:01.057Z,9.6
2022-11-05T02:17:01.315Z,9.6
2022-11-05T02:18:02.492Z,9.6
2022-11-05T02:19:01.114Z,9.6
2022-11-05T02:20:01.108Z,9.6
2022-11-05T02:21:01.126Z,9.6
2022-11-05T02:22:01.055Z,9.6
2022-11-05T02:23:01.156Z,9.6
2022-11-05T02:24:01.148Z,9.6
2022-11-05T02:25:01.385Z,9.6
2022-11-05T02:26:01.148Z,9.5
2022-11-05T02:27:01.325Z,9.5
2022-11-05T02:28:01.453Z,9.5
2022-11-05T02:29:01.130Z,9.6
2022-11-05T02:30:01.088Z,9.6
2022-11-05T02:31:01.045Z,9.6
2022-11-05T02:32:01.704Z,9.6
2022-11-05T02:33:01.043Z,9.6
2022-11-05T02:34:01.038Z,9.6
2022-11-05T02:35:01.113Z,9.5
2022-11-05T02:36:01.111Z,9.6
2022-11-05T02:37:01.504Z,9.6
2022-11-05T02:38:01.068Z,9.6
2022-11-05T02:39:01.154Z,9.6
2022-11-05T02:40:01.549Z,9.6
2022-11-05T02:41:01.776Z,9.6
2022-11-05T02:42:05.011Z,9.6
2022-11-05T02:43:01.469Z,9.5
2022-11-05T02:44:02.505Z,9.5
2022-11-05T02:45:01.281Z,9.6
2022-11-05T02:46:01.880Z,9.5
2022-11-05T02:47:03.070Z,9.6
2022-11-05T02:48:01.160Z,9.5
2022-11-05T02:49:01.091Z,9.6
2022-11-05T02:50:02.183Z,9.6
2022-11-05T02:51:01.064Z,9.5
2022-11-05T02:52:06.612Z,9.6
2022-11-05T02:53:01.113Z,9.5
2022-11-05T02:54:01.050Z,9.5
2022-11-05T02:55:01.054Z,9.5
2022-11-05T02:56:01.432Z,9.6
2022-11-05T02:57:10.055Z,9.6
2022-11-05T02:58:01.188Z,9.5
2022-11-05T02:59:01.307Z,9.6
2022-11-05T03:00:01.442Z,9.6
2022-11-05T03:01:02.103Z,9.6
2022-11-05T03:02:13.354Z,9.6
2022-11-05T03:03:01.171Z,9.6
2022-11-05T03:04:01.789Z,9.6
2022-11-05T03:05:01.093Z,9.5
2022-11-05T03:06:01.218Z,9.6
2022-11-05T03:07:16.796Z,9.5
2022-11-05T03:08:01.057Z,9.5
2022-11-05T03:09:00.669Z,9.5
2022-11-05T03:10:00.291Z,9.5
2022-11-05T03:11:00.072Z,9.5
2022-11-05T03:11:59.752Z,9.5
2022-11-05T03:13:01.429Z,9.5
2022-11-05T03:14:01.063Z,9.5
2022-11-05T03:15:01.468Z,9.5
2022-11-05T03:16:01.174Z,9.5
2022-11-05T03:17:01.078Z,9.5
2022-11-05T03:18:01.093Z,9.5
2022-11-05T03:19:01.041Z,9.5
2022-11-05T03:20:01.138Z,9.5
2022-11-05T03:21:01.097Z,9.5
2022-11-05T03:22:01.069Z,9.5
2022-11-05T03:23:01.444Z,9.5
2022-11-05T03:24:00.646Z,9.5
2022-11-05T03:25:00.306Z,9.5
2022-11-05T03:25:59.881Z,9.5
2022-11-05T03:26:59.498Z,9.5
2022-11-05T03:28:01.169Z,9.5
2022-11-05T03:29:01.782Z,9.5
2022-11-05T03:30:01.155Z,9.5
2022-11-05T03:31:01.175Z,9.5
2022-11-05T03:32:01.803Z,9.5
2022-11-05T03:33:00.869Z,9.5
2022-11-05T03:34:02.065Z,9.5
2022-11-05T03:35:01.839Z,9.5
2022-11-05T03:36:01.113Z,9.5
2022-11-05T03:37:01.104Z,9.5
2022-11-05T03:38:01.119Z,9.5
2022-11-05T03:39:00.996Z,9.5
2022-11-05T03:40:01.117Z,9.5
2022-11-05T03:41:01.119Z,9.5
2022-11-05T03:42:01.149Z,9.5
2022-11-05T03:43:01.528Z,9.5
2022-11-05T03:44:01.275Z,9.5
2022-11-05T03:45:04.064Z,9.5
2022-11-05T03:46:01.215Z,9.5
2022-11-05T03:47:01.466Z,9.5
2022-11-05T03:48:01.158Z,9.5
2022-11-05T03:49:01.125Z,9.5
2022-11-05T03:50:01.075Z,9.5
2022-11-05T03:51:01.085Z,9.5
2022-11-05T03:52:01.086Z,9.4
2022-11-05T03:53:01.061Z,9.4
2022-11-05T03:54:01.099Z,9.5
2022-11-05T03:55:01.119Z,9.5
2022-11-05T03:56:01.117Z,9.5
2022-11-05T03:57:01.067Z,9.5
2022-11-05T03:58:01.134Z,9.4
2022-11-05T03:59:01.062Z,9.4
2022-11-05T04:00:01.151Z,9.5
2022-11-05T04:01:01.521Z,9.4
2022-11-05T04:02:01.387Z,9.4
2022-11-05T04:03:01.274Z,9.4
2022-11-05T04:04:01.964Z,9.4
2022-11-05T04:05:00.949Z,9.4
2022-11-05T04:06:01.132Z,9.4
2022-11-05T04:07:01.469Z,9.4
2022-11-05T04:08:01.789Z,9.4
2022-11-05T04:09:01.095Z,9.4
2022-11-05T04:10:01.103Z,9.4
2022-11-05T04:11:01.893Z,9.4
2022-11-05T04:12:01.826Z,9.4
2022-11-05T04:13:01.511Z,9.4
2022-11-05T04:14:02.077Z,9.4
2022-11-05T04:15:01.095Z,9.4
2022-11-05T04:16:01.074Z,9.4
2022-11-05T04:17:01.063Z,9.4
2022-11-05T04:18:01.717Z,9.4
2022-11-05T04:19:01.061Z,9.4
2022-11-05T04:20:01.385Z,9.4
2022-11-05T04:21:01.387Z,9.4
2022-11-05T04:22:02.513Z,9.4
2022-11-05T04:23:02.879Z,9.4
2022-11-05T04:24:01.703Z,9.4
2022-11-05T04:25:01.379Z,9.4
2022-11-05T04:26:02.641Z,9.4
2022-11-05T04:27:01.318Z,9.4
2022-11-05T04:28:05.868Z,9.4
2022-11-05T04:29:05.228Z,9.4
2022-11-05T04:30:01.132Z,9.4
2022-11-05T04:31:01.129Z,9.4
2022-11-05T04:32:01.130Z,9.4
2022-11-05T04:33:08.701Z,9.4
2022-11-05T04:34:01.142Z,9.4
2022-11-05T04:35:01.319Z,9.5
2022-11-05T04:36:01.059Z,9.5
2022-11-05T04:37:01.076Z,9.4
2022-11-05T04:38:11.599Z,9.4
2022-11-05T04:39:01.723Z,9.4
2022-11-05T04:40:01.775Z,9.4
2022-11-05T04:41:01.763Z,9.4
2022-11-05T04:42:01.180Z,9.4
2022-11-05T04:43:15.317Z,9.5
2022-11-05T04:44:01.106Z,9.4
2022-11-05T04:45:01.123Z,9.4
2022-11-05T04:46:01.131Z,9.4
2022-11-05T04:47:01.727Z,9.5
2022-11-05T04:48:17.351Z,9.5
2022-11-05T04:49:01.674Z,9.5
2022-11-05T04:50:01.168Z,9.5
2022-11-05T04:51:01.159Z,9.5
2022-11-05T04:52:01.159Z,9.5
2022-11-05T04:53:01.903Z,9.4
2022-11-05T04:54:01.451Z,9.4
2022-11-05T04:55:00.894Z,9.5
2022-11-05T04:56:01.103Z,9.4
2022-11-05T04:57:01.092Z,9.4
2022-11-05T04:58:01.112Z,9.4
2022-11-05T04:59:01.392Z,9.4
2022-11-05T05:00:01.488Z,9.4
2022-11-05T05:01:01.189Z,9.4
2022-11-05T05:02:01.198Z,9.5
2022-11-05T05:03:01.167Z,9.5
2022-11-05T05:04:01.146Z,9.5
2022-11-05T05:05:01.137Z,9.4
2022-11-05T05:06:03.916Z,9.5
2022-11-05T05:07:01.176Z,9.5
2022-11-05T05:08:01.797Z,9.5
2022-11-05T05:09:02.212Z,9.4
2022-11-05T05:10:01.671Z,9.5
2022-11-05T05:11:04.248Z,9.5
2022-11-05T05:12:01.104Z,9.5
2022-11-05T05:13:01.112Z,9.5
2022-11-05T05:14:01.116Z,9.5
2022-11-05T05:15:01.233Z,9.5
2022-11-05T05:16:01.044Z,9.5
2022-11-05T05:17:01.290Z,9.5
2022-11-05T05:18:01.308Z,9.5
2022-11-05T05:19:01.045Z,9.5
2022-11-05T05:20:01.047Z,9.5
2022-11-05T05:21:01.961Z,9.5
2022-11-05T05:22:01.198Z,9.5
2022-11-05T05:23:01.334Z,9.5
2022-11-05T05:24:01.855Z,9.5
2022-11-05T05:25:01.339Z,9.5
2022-11-05T05:26:01.462Z,9.5
2022-11-05T05:27:02.111Z,9.5
2022-11-05T05:28:01.897Z,9.5
2022-11-05T05:29:01.079Z,9.4
2022-11-05T05:30:01.069Z,9.5
2022-11-05T05:31:01.118Z,9.5
2022-11-05T05:32:01.041Z,9.5
2022-11-05T05:33:01.118Z,9.5
2022-11-05T05:34:01.382Z,9.4
2022-11-05T05:35:00.702Z,9.5
2022-11-05T05:36:00.312Z,9.5
2022-11-05T05:36:59.875Z,9.5
2022-11-05T05:37:59.416Z,9.5
2022-11-05T05:39:02.071Z,9.4
2022-11-05T05:40:01.051Z,9.5
2022-11-05T05:41:01.089Z,9.5
2022-11-05T05:42:01.674Z,9.5
2022-11-05T05:43:01.165Z,9.5
2022-11-05T05:44:00.801Z,9.5
2022-11-05T05:45:00.488Z,9.5
2022-11-05T05:46:00.052Z,9.5
2022-11-05T05:46:59.683Z,9.5
2022-11-05T05:48:01.285Z,9.5
2022-11-05T05:49:00.992Z,9.5
2022-11-05T05:50:01.114Z,9.5
2022-11-05T05:51:01.395Z,9.5
2022-11-05T05:52:02.019Z,9.5
2022-11-05T05:53:02.680Z,9.5
2022-11-05T05:54:01.196Z,9.5
2022-11-05T05:55:01.150Z,9.5
2022-11-05T05:56:01.063Z,9.5
2022-11-05T05:57:01.076Z,9.5
2022-11-05T05:58:01.647Z,9.4
2022-11-05T05:59:01.567Z,9.4
2022-11-05T06:00:02.161Z,9.4
2022-11-05T06:01:01.294Z,9.5
2022-11-05T06:02:01.236Z,9.5
2022-11-05T06:03:01.189Z,9.4
2022-11-05T06:04:04.864Z,9.5
2022-11-05T06:05:01.914Z,9.5
2022-11-05T06:06:01.186Z,9.5
2022-11-05T06:07:01.453Z,9.5
2022-11-05T06:08:00.836Z,9.4
2022-11-05T06:09:07.774Z,9.4
2022-11-05T06:10:01.204Z,9.4
2022-11-05T06:11:01.296Z,9.4
2022-11-05T06:12:01.975Z,9.4
2022-11-05T06:13:02.603Z,9.4
2022-11-05T06:14:11.205Z,9.4
2022-11-05T06:15:01.485Z,9.4
2022-11-05T06:16:01.188Z,9.4
2022-11-05T06:17:01.207Z,9.4
2022-11-05T06:18:01.061Z,9.4
2022-11-05T06:19:13.863Z,9.4
2022-11-05T06:20:00.817Z,9.4
2022-11-05T06:21:01.927Z,9.4
2022-11-05T06:22:01.437Z,9.4
2022-11-05T06:23:01.164Z,9.4
2022-11-05T06:24:01.256Z,9.4
2022-11-05T06:25:01.855Z,9.4
2022-11-05T06:26:01.223Z,9.3
2022-11-05T06:27:01.094Z,9.3
2022-11-05T06:28:00.732Z,9.3
2022-11-05T06:29:00.318Z,9.3
2022-11-05T06:30:00.229Z,9.4
2022-11-05T06:30:59.947Z,9.3
2022-11-05T06:31:59.647Z,9.4
2022-11-05T06:33:01.276Z,9.4
2022-11-05T06:34:01.907Z,9.4
2022-11-05T06:35:00.875Z,9.4
2022-11-05T06:36:01.042Z,9.4
2022-11-05T06:37:01.051Z,9.4
2022-11-05T06:38:01.066Z,9.4
2022-11-05T06:39:01.070Z,9.4
2022-11-05T06:40:01.155Z,9.4
2022-11-05T06:41:05.816Z,9.4
2022-11-05T06:42:17.994Z,9.4
2022-11-05T06:43:01.452Z,9.4
2022-11-05T06:44:01.193Z,9.4
2022-11-05T06:45:01.056Z,9.4
2022-11-05T06:46:01.064Z,9.5
2022-11-05T06:47:01.752Z,9.5
2022-11-05T06:48:01.407Z,9.5
2022-11-05T06:49:01.136Z,9.5
2022-11-05T06:50:01.478Z,9.5
2022-11-05T06:51:01.460Z,9.5
2022-11-05T06:52:02.196Z,9.5
2022-11-05T06:53:01.123Z,9.5
2022-11-05T06:54:01.132Z,9.5
2022-11-05T06:55:01.461Z,9.5
2022-11-05T06:56:01.150Z,9.5
2022-11-05T06:57:01.167Z,9.5
2022-11-05T06:58:01.336Z,9.5
2022-11-05T06:59:01.337Z,9.6
2022-11-05T07:00:07.459Z,9.6
2022-11-05T07:01:01.186Z,9.6
2022-11-05T07:02:01.938Z,9.6
2022-11-05T07:03:01.091Z,9.6
2022-11-05T07:04:01.100Z,9.6
2022-11-05T07:05:01.799Z,9.6
2022-11-05T07:06:01.487Z,9.6
2022-11-05T07:07:01.109Z,9.6
2022-11-05T07:08:01.096Z,9.6
2022-11-05T07:09:00.916Z,9.6
2022-11-05T07:10:01.715Z,9.6
2022-11-05T07:11:00.627Z,9.6
2022-11-05T07:12:00.540Z,9.6
2022-11-05T07:13:03.724Z,9.6
2022-11-05T07:14:00.769Z,9.6
2022-11-05T07:15:00.441Z,9.6
2022-11-05T07:16:00.121Z,9.6
2022-11-05T07:16:59.732Z,9.6
2022-11-05T07:18:03.177Z,9.6
2022-11-05T07:19:01.488Z,9.6
2022-11-05T07:20:01.111Z,9.6
2022-11-05T07:21:01.090Z,9.6
2022-11-05T07:22:01.101Z,9.6
2022-11-05T07:23:01.116Z,9.6
2022-11-05T07:24:01.107Z,9.6
2022-11-05T07:25:01.387Z,9.6
2022-11-05T07:26:01.400Z,9.6
2022-11-05T07:27:01.138Z,9.6
2022-11-05T07:28:01.129Z,9.6
2022-11-05T07:29:00.763Z,9.6
2022-11-05T07:30:00.435Z,9.6
2022-11-05T07:31:00.129Z,9.6
2022-11-05T07:31:59.828Z,9.6
2022-11-05T07:33:02.496Z,9.6
2022-11-05T07:34:01.117Z,9.6
2022-11-05T07:35:00.756Z,9.6
2022-11-05T07:36:00.392Z,9.6
2022-11-05T07:36:59.951Z,9.6
2022-11-05T07:37:59.647Z,9.6
2022-11-05T07:39:01.283Z,9.7
2022-11-05T07:40:01.940Z,9.7
2022-11-05T07:41:01.049Z,9.7
2022-11-05T07:42:01.706Z,9.7
2022-11-05T07:43:01.053Z,9.7
2022-11-05T07:44:01.089Z,9.7
2022-11-05T07:45:01.410Z,9.7
2022-11-05T07:46:01.190Z,9.7
2022-11-05T07:47:01.180Z,9.6
2022-11-05T07:48:01.049Z,9.6
2022-11-05T07:49:00.749Z,9.6
2022-11-05T07:50:00.530Z,9.6
2022-11-05T07:51:00.102Z,9.6
2022-11-05T07:51:59.750Z,9.6
2022-11-05T07:54:01.395Z,9.6
2022-11-05T07:55:00.998Z,9.6
2022-11-05T07:56:01.053Z,9.7
2022-11-05T07:57:01.129Z,9.7
2022-11-05T07:58:01.139Z,9.7
2022-11-05T07:59:01.129Z,9.7
2022-11-05T08:00:01.467Z,9.7
2022-11-05T08:01:02.449Z,9.7
2022-11-05T08:02:02.477Z,9.7
2022-11-05T08:03:07.212Z,9.7
2022-11-05T08:04:01.323Z,9.7
2022-11-05T08:05:02.426Z,9.7
2022-11-05T08:06:01.073Z,9.7
2022-11-05T08:07:01.076Z,9.7
2022-11-05T08:08:01.084Z,9.7
2022-11-05T08:09:00.774Z,9.7
2022-11-05T08:10:00.865Z,9.8
2022-11-05T08:11:01.154Z,9.7
2022-11-05T08:12:03.160Z,9.7
2022-11-05T08:13:01.859Z,9.8
2022-11-05T08:14:01.708Z,9.7
2022-11-05T08:15:01.727Z,9.7
2022-11-05T08:16:01.334Z,9.7
2022-11-05T08:17:01.134Z,9.7
2022-11-05T08:18:01.169Z,9.6
2022-11-05T08:19:01.249Z,9.7
2022-11-05T08:20:01.860Z,9.7
2022-11-05T08:21:01.855Z,9.7
2022-11-05T08:22:01.304Z,9.7
2022-11-05T08:23:01.311Z,9.7
2022-11-05T08:24:02.436Z,9.7
2022-11-05T08:25:06.752Z,9.7
2022-11-05T08:26:01.072Z,9.7
2022-11-05T08:27:01.039Z,9.8
2022-11-05T08:28:01.247Z,9.8
2022-11-05T08:29:00.703Z,9.8
2022-11-05T08:30:00.299Z,9.8
2022-11-05T08:30:59.906Z,9.8
2022-11-05T08:31:59.516Z,9.8
2022-11-05T08:33:01.435Z,9.8
2022-11-05T08:34:02.785Z,9.8
2022-11-05T08:35:03.063Z,9.8
2022-11-05T08:36:01.169Z,9.8
2022-11-05T08:37:01.968Z,9.8
2022-11-05T08:38:01.752Z,9.8
2022-11-05T08:39:01.085Z,9.8
2022-11-05T08:40:01.080Z,9.8
2022-11-05T08:41:01.448Z,9.8
2022-11-05T08:42:01.047Z,9.8
2022-11-05T08:43:01.101Z,9.8
2022-11-05T08:44:01.113Z,9.9
2022-11-05T08:45:01.040Z,9.9
2022-11-05T08:46:01.050Z,9.9
2022-11-05T08:47:01.146Z,9.9
2022-11-05T08:48:01.120Z,9.9
2022-11-05T08:49:01.283Z,10
2022-11-05T08:50:01.266Z,10
2022-11-05T08:51:04.015Z,10
2022-11-05T08:52:01.155Z,10
2022-11-05T08:53:01.090Z,10
2022-11-05T08:54:01.059Z,10
2022-11-05T08:55:01.695Z,10
2022-11-05T08:56:01.048Z,10
2022-11-05T08:57:01.080Z,10
2022-11-05T08:58:01.069Z,10
2022-11-05T08:59:01.503Z,9.9
2022-11-05T09:00:01.215Z,10
2022-11-05T09:01:08.813Z,9.9
2022-11-05T09:02:01.938Z,9.9
2022-11-05T09:03:01.769Z,9.9
2022-11-05T09:04:01.232Z,10
2022-11-05T09:05:01.132Z,10
2022-11-05T09:06:01.078Z,10.1
2022-11-05T09:07:01.063Z,10.1
2022-11-05T09:08:01.810Z,10.1
2022-11-05T09:09:01.957Z,10.2
2022-11-05T09:10:01.383Z,10.2
2022-11-05T09:11:00.696Z,10.3
2022-11-05T09:12:15.878Z,10.3
2022-11-05T09:13:01.570Z,10.3
2022-11-05T09:14:01.129Z,10.4
2022-11-05T09:15:01.798Z,10.5
2022-11-05T09:16:01.494Z,10.5
2022-11-05T09:17:02.548Z,10.5
2022-11-05T09:18:02.297Z,10.5
2022-11-05T09:19:02.949Z,10.5
2022-11-05T09:20:01.155Z,10.5
2022-11-05T09:21:01.139Z,10.5
2022-11-05T09:22:01.178Z,10.5
2022-11-05T09:23:01.162Z,10.5
2022-11-05T09:24:05.802Z,10.5
2022-11-05T09:25:01.433Z,10.5
2022-11-05T09:26:01.081Z,10.5
2022-11-05T09:27:01.039Z,10.5
2022-11-05T09:28:01.039Z,10.5
2022-11-05T09:29:13.171Z,10.5
2022-11-05T09:30:01.107Z,10.5
2022-11-05T09:31:01.066Z,10.5
2022-11-05T09:32:01.366Z,10.5
2022-11-05T09:33:03.876Z,10.5
2022-11-05T09:34:11.046Z,10.5
2022-11-05T09:35:01.551Z,10.5
2022-11-05T09:36:01.135Z,10.5
2022-11-05T09:37:01.149Z,10.5
2022-11-05T09:38:01.477Z,10.5
2022-11-05T09:39:14.676Z,10.4
2022-11-05T09:40:01.167Z,10.4
2022-11-05T09:41:01.170Z,10.4
2022-11-05T09:42:01.158Z,10.3
2022-11-05T09:43:01.799Z,10.3
2022-11-05T09:44:16.740Z,10.3
2022-11-05T09:45:02.294Z,10.3
2022-11-05T09:46:01.785Z,10.3
2022-11-05T09:47:01.433Z,10.3
2022-11-05T09:48:02.127Z,10.3
2022-11-05T09:49:01.110Z,10.3
2022-11-05T09:50:01.204Z,10.3
2022-11-05T09:51:02.084Z,10.3
2022-11-05T09:52:01.189Z,10.3
2022-11-05T09:53:03.881Z,10.3
2022-11-05T09:54:01.954Z,10.3
2022-11-05T09:55:01.147Z,10.2
2022-11-05T09:56:01.153Z,10.2
2022-11-05T09:57:01.804Z,10.3
2022-11-05T09:58:01.066Z,10.2
2022-11-05T09:59:01.073Z,10.3
2022-11-05T10:00:01.163Z,10.3
2022-11-05T10:01:01.270Z,10.3
2022-11-05T10:02:01.540Z,10.4
2022-11-05T10:03:02.073Z,10.4
2022-11-05T10:04:02.200Z,10.4
2022-11-05T10:05:05.004Z,10.4
2022-11-05T10:06:01.122Z,10.4
2022-11-05T10:07:01.138Z,10.4
2022-11-05T10:08:01.155Z,10.4
2022-11-05T10:09:01.483Z,10.4
2022-11-05T10:10:02.679Z,10.4
2022-11-05T10:11:02.269Z,10.4
2022-11-05T10:12:01.155Z,10.5
2022-11-05T10:13:01.095Z,10.4
2022-11-05T10:14:01.045Z,10.5
2022-11-05T10:15:00.761Z,10.4
2022-11-05T10:16:00.352Z,10.4
2022-11-05T10:17:00.076Z,10.4
2022-11-05T10:17:59.754Z,10.4
2022-11-05T10:19:01.436Z,10.4
2022-11-05T10:20:02.285Z,10.4
2022-11-05T10:21:02.885Z,10.4
2022-11-05T10:22:08.642Z,10.4
2022-11-05T10:23:01.050Z,10.4
2022-11-05T10:24:01.119Z,10.4
2022-11-05T10:25:01.140Z,10.4
2022-11-05T10:26:01.056Z,10.5
2022-11-05T10:27:01.057Z,10.5
2022-11-05T10:28:01.338Z,10.5
2022-11-05T10:29:01.342Z,10.5
2022-11-05T10:30:01.491Z,10.5
2022-11-05T10:31:01.097Z,10.5
2022-11-05T10:32:01.099Z,10.5
2022-11-05T10:33:01.742Z,10.5
2022-11-05T10:34:01.094Z,10.5
2022-11-05T10:35:01.303Z,10.5
2022-11-05T10:36:01.486Z,10.6
2022-11-05T10:37:02.555Z,10.5
2022-11-05T10:38:01.224Z,10.6
2022-11-05T10:39:01.059Z,10.6
2022-11-05T10:40:01.063Z,10.6
2022-11-05T10:41:01.069Z,10.6
2022-11-05T10:42:01.050Z,10.6
2022-11-05T10:43:01.038Z,10.7
2022-11-05T10:44:01.150Z,10.8
2022-11-05T10:45:01.460Z,10.8
2022-11-05T10:46:01.190Z,10.8
2022-11-05T10:47:01.043Z,10.8
2022-11-05T10:48:01.149Z,10.9
2022-11-05T10:49:01.068Z,11
2022-11-05T10:50:00.726Z,11
2022-11-05T10:51:00.375Z,11.1
2022-11-05T10:51:59.946Z,11.1
2022-11-05T10:52:59.566Z,11.2
2022-11-05T10:54:02.299Z,11.2
2022-11-05T10:55:01.146Z,11.2
2022-11-05T10:56:01.814Z,11.2
2022-11-05T10:57:01.861Z,11.3
2022-11-05T10:58:01.043Z,11.3
2022-11-05T10:59:01.138Z,11.3
2022-11-05T11:00:01.044Z,11.3
2022-11-05T11:01:01.145Z,11.3
2022-11-05T11:02:01.461Z,11.3
2022-11-05T11:03:01.717Z,11.4
2022-11-05T11:04:01.138Z,11.4
2022-11-05T11:05:02.914Z,11.5
2022-11-05T11:06:01.098Z,11.5
2022-11-05T11:07:01.101Z,11.5
2022-11-05T11:08:01.133Z,11.5
2022-11-05T11:09:01.832Z,11.6
2022-11-05T11:10:06.227Z,11.6
2022-11-05T11:11:08.746Z,11.6
2022-11-05T11:12:01.132Z,11.7
2022-11-05T11:13:02.186Z,11.7
2022-11-05T11:14:01.459Z,11.8
2022-11-05T11:15:07.249Z,11.8
2022-11-05T11:16:01.161Z,11.8
2022-11-05T11:17:01.970Z,11.8
2022-11-05T11:18:01.761Z,11.8
2022-11-05T11:19:01.049Z,11.8
2022-11-05T11:20:09.968Z,11.8
2022-11-05T11:21:01.728Z,11.8
2022-11-05T11:22:02.669Z,11.8
2022-11-05T11:23:01.628Z,11.9
2022-11-05T11:24:01.617Z,11.9
2022-11-05T11:25:13.458Z,11.9
2022-11-05T11:26:01.083Z,11.8
2022-11-05T11:27:01.135Z,11.8
2022-11-05T11:28:01.131Z,11.8
2022-11-05T11:29:01.552Z,11.8
2022-11-05T11:30:16.008Z,11.8
2022-11-05T11:31:01.563Z,11.8
2022-11-05T11:32:01.176Z,11.8
2022-11-05T11:33:01.051Z,11.9
2022-11-05T11:34:01.067Z,12
2022-11-05T11:35:01.073Z,12.1
2022-11-05T11:36:03.940Z,12.1
2022-11-05T11:37:01.866Z,12.1
2022-11-05T11:38:01.068Z,12.2
2022-11-05T11:39:01.108Z,12.3
2022-11-05T11:40:01.124Z,12.3
2022-11-05T11:41:01.453Z,12.3
2022-11-05T11:42:01.056Z,12.3
2022-11-05T11:43:01.053Z,12.3
2022-11-05T11:44:01.615Z,12.3
2022-11-05T11:45:01.131Z,12.2
2022-11-05T11:46:05.551Z,12.1
2022-11-05T11:47:01.345Z,12.1
2022-11-05T11:48:01.497Z,12.1
2022-11-05T11:49:02.071Z,12
2022-11-05T11:50:01.169Z,12
2022-11-05T11:51:01.124Z,12
2022-11-05T11:52:01.777Z,12.1
2022-11-05T11:53:01.779Z,12
2022-11-05T11:54:01.399Z,12.1
2022-11-05T11:55:02.041Z,12
2022-11-05T11:56:02.171Z,12.1
2022-11-05T11:57:01.105Z,12.1
2022-11-05T11:58:01.107Z,12.1
2022-11-05T11:59:01.115Z,12.1
2022-11-05T12:00:09.750Z,12.1
2022-11-05T12:01:01.858Z,12.1
2022-11-05T12:02:02.465Z,12.1
2022-11-05T12:03:02.613Z,12.1
2022-11-05T12:04:01.775Z,12
2022-11-05T12:05:01.748Z,12
2022-11-05T12:06:01.183Z,12
2022-11-05T12:07:01.295Z,12
2022-11-05T12:08:01.233Z,12
2022-11-05T12:09:06.514Z,12
2022-11-05T12:10:01.464Z,12
2022-11-05T12:11:01.074Z,11.9
2022-11-05T12:12:01.106Z,11.9
2022-11-05T12:13:01.120Z,11.8
2022-11-05T12:14:01.113Z,11.8
2022-11-05T12:15:01.931Z,11.8
2022-11-05T12:16:01.453Z,11.9
2022-11-05T12:17:02.815Z,12
2022-11-05T12:18:01.259Z,12
2022-11-05T12:19:01.160Z,12
2022-11-05T12:20:01.180Z,12.1
2022-11-05T12:21:01.164Z,12.1
2022-11-05T12:22:01.081Z,12.1
2022-11-05T12:23:01.075Z,12.2
2022-11-05T12:24:01.080Z,12.3
2022-11-05T12:25:01.120Z,12.3
2022-11-05T12:26:03.799Z,12.3
2022-11-05T12:27:03.950Z,12.3
2022-11-05T12:28:02.589Z,12.3
2022-11-05T12:30:01.166Z,12.4
2022-11-05T12:31:01.870Z,12.4
2022-11-05T12:32:01.128Z,12.4
2022-11-05T12:33:01.907Z,12.4
2022-11-05T12:33:59.898Z,12.4
2022-11-05T12:34:59.504Z,12.5
2022-11-05T12:36:02.693Z,12.5
2022-11-05T12:37:01.129Z,12.5
2022-11-05T12:38:01.765Z,12.5
2022-11-05T12:39:01.878Z,12.5
2022-11-05T12:40:01.859Z,12.5
2022-11-05T12:41:01.096Z,12.5
2022-11-05T12:42:01.102Z,12.5
2022-11-05T12:43:01.111Z,12.5
2022-11-05T12:44:01.057Z,12.5
2022-11-05T12:45:01.116Z,12.5
2022-11-05T12:46:01.031Z,12.5
2022-11-05T12:47:01.064Z,12.5
2022-11-05T12:48:01.121Z,12.5
2022-11-05T12:49:01.152Z,12.5
2022-11-05T12:50:03.938Z,12.5
2022-11-05T12:51:03.909Z,12.5
2022-11-05T12:52:01.080Z,12.5
2022-11-05T12:53:01.553Z,12.5
2022-11-05T12:54:01.043Z,12.5
2022-11-05T12:55:01.077Z,12.5
2022-11-05T12:56:08.393Z,12.5
2022-11-05T12:57:01.827Z,12.5
2022-11-05T12:58:04.509Z,12.5
2022-11-05T12:59:01.402Z,12.5
2022-11-05T13:00:02.029Z,12.5
2022-11-05T13:01:11.599Z,12.5
2022-11-05T13:02:04.733Z,12.5
2022-11-05T13:03:02.173Z,12.5
2022-11-05T13:04:01.682Z,12.4
2022-11-05T13:05:01.132Z,12.4
2022-11-05T13:06:14.152Z,12.3
2022-11-05T13:07:01.052Z,12.3
2022-11-05T13:08:01.755Z,12.3
2022-11-05T13:09:01.577Z,12.3
2022-11-05T13:10:00.780Z,12.4
2022-11-05T13:11:00.459Z,12.4
2022-11-05T13:12:00.034Z,12.4
2022-11-05T13:12:59.583Z,12.4
2022-11-05T13:14:01.679Z,12.4
2022-11-05T13:15:01.772Z,12.4
2022-11-05T13:16:01.262Z,12.3
2022-11-05T13:17:01.107Z,12.3
2022-11-05T13:18:01.120Z,12.3
2022-11-05T13:19:03.868Z,12.3
2022-11-05T13:20:01.744Z,12.2
2022-11-05T13:21:01.948Z,12.2
2022-11-05T13:22:02.192Z,12.2
2022-11-05T13:23:01.054Z,12.2
2022-11-05T13:24:01.053Z,12.2
2022-11-05T13:25:01.046Z,12.3
2022-11-05T13:26:01.071Z,12.3
2022-11-05T13:27:01.068Z,12.3
2022-11-05T13:28:01.097Z,12.3
2022-11-05T13:29:01.096Z,12.3
2022-11-05T13:30:00.715Z,12.4
2022-11-05T13:31:00.489Z,12.4
2022-11-05T13:32:00.177Z,12.4
2022-11-05T13:32:59.869Z,12.4
2022-11-05T13:33:59.465Z,12.4
2022-11-05T13:35:01.081Z,12.4
2022-11-05T13:36:01.054Z,12.3
2022-11-05T13:37:01.058Z,12.4
2022-11-05T13:38:01.427Z,12.3
2022-11-05T13:39:03.704Z,12.3
2022-11-05T13:40:01.090Z,12.3